Aérodrome :
LOGIN :

S'inscrire | Disclaimer

   EN    FR    IT 

 










Légende :    VFR   VFR Marginal   IFR   IFR Intensif   IFR Très Intensif
Visi : 
Plafond : 
>= 8 km
>= 3000ft
5 à 8 km
1000 à 3000 ft
1500m à 5 km
500 à 1000 ft
800 à 1500m
200 à 500 ft
< 800m
< 200 ft
Symboles :   Orages  Brouillard  Fortes neiges  Fortes précipitations  Vent > 20 kt
SIGMETs :   Divers  Orages  Givrage  Turbulence  Onde Orograph.  Cendres Volcan.






- Altitude de l'aérodrome : 161 ft
- Code IATA : PMF


LIMP - Parma

DERNIER METAR :
  • 281150Z 29009KT 230V330 CAVOK 15/01 Q1018

METARs EXPIRÉS :
  • 281050Z 30009KT 270V340 CAVOK 14/01 Q1017
  • 280950Z 30014KT CAVOK 13/01 Q1016

TAF TAF LIMP
Valide du 28 à 12h jusqu'au 29 à 12h UTC


281100Z 2812/2912 29012KT CAVOK
BECMG 2813/2815 VRB05KT



MET'MAP, la Météo Aéronautique d'un coup d'oeil ! - Copyright ORBIFLY Décembre 2007 - Disclaimer

ORBIFLY MET'MAP TEAM :

Programmation & Développement : Alexandra Zaïnal
Sur une idée originale de : Baudouin d'Aumeries
Assistance à la programmation : Marc-Olivier Méhu
Soutien technique & logistique : Manuel Goepfert

Contact : metmap@orbifly.com




SOURCES & CREDITS :

   NOAA